sensor_id;sensor_type;location;lat;lon;timestamp;pressure;altitude;pressure_sealevel;temperature;humidity
44027;BME280;29696;55.698;37.460;2022-10-26T00:01:13;99969.66;;;1.43;73.31
44027;BME280;29696;55.698;37.460;2022-10-26T00:03:42;99975.09;;;1.38;73.29
44027;BME280;29696;55.698;37.460;2022-10-26T00:06:16;99968.31;;;1.34;73.32
44027;BME280;29696;55.698;37.460;2022-10-26T00:08:43;99967.16;;;1.41;73.33
44027;BME280;29696;55.698;37.460;2022-10-26T00:11:10;99962.66;;;1.24;73.85
44027;BME280;29696;55.698;37.460;2022-10-26T00:13:38;99973.16;;;1.23;74.20
44027;BME280;29696;55.698;37.460;2022-10-26T00:16:09;99967.16;;;1.21;74.59
44027;BME280;29696;55.698;37.460;2022-10-26T00:18:36;99966.59;;;1.14;74.75
44027;BME280;29696;55.698;37.460;2022-10-26T00:21:04;99964.03;;;1.12;74.72
44027;BME280;29696;55.698;37.460;2022-10-26T00:23:33;99962.50;;;1.08;74.67
44027;BME280;29696;55.698;37.460;2022-10-26T00:25:59;99964.31;;;1.06;74.99
44027;BME280;29696;55.698;37.460;2022-10-26T00:28:26;99960.22;;;1.01;75.28
44027;BME280;29696;55.698;37.460;2022-10-26T00:30:52;99951.63;;;0.99;75.47
44027;BME280;29696;55.698;37.460;2022-10-26T00:33:19;99956.06;;;0.97;75.29
44027;BME280;29696;55.698;37.460;2022-10-26T00:35:47;99960.44;;;0.96;75.53
44027;BME280;29696;55.698;37.460;2022-10-26T00:38:14;99948.66;;;0.87;75.50
44027;BME280;29696;55.698;37.460;2022-10-26T00:40:40;99950.31;;;0.88;75.98
44027;BME280;29696;55.698;37.460;2022-10-26T00:43:34;99948.25;;;0.97;76.25
44027;BME280;29696;55.698;37.460;2022-10-26T00:46:02;99949.53;;;0.86;76.26
44027;BME280;29696;55.698;37.460;2022-10-26T00:48:34;99946.03;;;0.87;76.26
44027;BME280;29696;55.698;37.460;2022-10-26T00:51:12;99947.72;;;0.88;76.29
44027;BME280;29696;55.698;37.460;2022-10-26T00:53:40;99959.94;;;0.86;76.36
44027;BME280;29696;55.698;37.460;2022-10-26T00:56:07;99956.44;;;0.87;76.32
44027;BME280;29696;55.698;37.460;2022-10-26T00:58:34;99953.91;;;0.86;75.99
44027;BME280;29696;55.698;37.460;2022-10-26T01:01:01;99960.72;;;0.88;76.08
44027;BME280;29696;55.698;37.460;2022-10-26T01:03:28;99956.31;;;0.90;75.88
44027;BME280;29696;55.698;37.460;2022-10-26T01:05:57;99950.19;;;0.91;75.84
44027;BME280;29696;55.698;37.460;2022-10-26T01:08:24;99954.44;;;0.94;75.82
44027;BME280;29696;55.698;37.460;2022-10-26T01:10:54;99951.69;;;0.97;75.86
44027;BME280;29696;55.698;37.460;2022-10-26T01:13:23;99951.50;;;1.02;75.65
44027;BME280;29696;55.698;37.460;2022-10-26T01:16:29;99960.59;;;1.12;75.71
44027;BME280;29696;55.698;37.460;2022-10-26T01:22:25;99951.38;;;1.05;75.39
44027;BME280;29696;55.698;37.460;2022-10-26T01:25:35;99950.38;;;1.07;75.70
44027;BME280;29696;55.698;37.460;2022-10-26T01:28:18;99945.31;;;1.04;75.45
44027;BME280;29696;55.698;37.460;2022-10-26T01:30:50;99947.34;;;0.98;75.55
44027;BME280;29696;55.698;37.460;2022-10-26T01:33:40;99951.28;;;1.06;75.83
44027;BME280;29696;55.698;37.460;2022-10-26T01:36:18;99949.66;;;1.04;75.66
44027;BME280;29696;55.698;37.460;2022-10-26T01:39:22;99957.28;;;1.08;75.47
44027;BME280;29696;55.698;37.460;2022-10-26T01:41:57;99952.41;;;1.01;75.63
44027;BME280;29696;55.698;37.460;2022-10-26T01:45:06;99948.66;;;1.08;75.63
44027;BME280;29696;55.698;37.460;2022-10-26T01:47:33;99951.56;;;1.00;75.42
44027;BME280;29696;55.698;37.460;2022-10-26T01:50:01;99944.72;;;0.98;75.54
44027;BME280;29696;55.698;37.460;2022-10-26T01:52:29;99945.69;;;0.95;75.65
44027;BME280;29696;55.698;37.460;2022-10-26T01:55:36;99943.75;;;1.00;75.98
44027;BME280;29696;55.698;37.460;2022-10-26T01:57:58;99941.47;;;0.93;75.78
44027;BME280;29696;55.698;37.460;2022-10-26T02:00:30;99953.72;;;0.90;75.75
44027;BME280;29696;55.698;37.460;2022-10-26T02:06:18;99943.50;;;0.86;76.36
44027;BME280;29696;55.698;37.460;2022-10-26T02:08:55;99954.69;;;0.88;75.92
44027;BME280;29696;55.698;37.460;2022-10-26T02:12:02;99948.38;;;0.73;76.16
44027;BME280;29696;55.698;37.460;2022-10-26T02:14:38;99950.25;;;0.70;76.47
44027;BME280;29696;55.698;37.460;2022-10-26T02:17:27;99950.44;;;0.65;77.16
44027;BME280;29696;55.698;37.460;2022-10-26T02:20:01;99955.22;;;0.54;77.25
44027;BME280;29696;55.698;37.460;2022-10-26T02:22:37;99951.16;;;0.48;77.72
44027;BME280;29696;55.698;37.460;2022-10-26T02:25:07;99955.75;;;0.41;77.68
44027;BME280;29696;55.698;37.460;2022-10-26T02:27:39;99952.50;;;0.36;78.06
44027;BME280;29696;55.698;37.460;2022-10-26T02:30:08;99954.44;;;0.31;78.27
44027;BME280;29696;55.698;37.460;2022-10-26T02:32:38;99951.13;;;0.28;78.47
44027;BME280;29696;55.698;37.460;2022-10-26T02:35:05;99947.91;;;0.21;78.47
44027;BME280;29696;55.698;37.460;2022-10-26T02:37:33;99954.91;;;0.19;78.70
44027;BME280;29696;55.698;37.460;2022-10-26T02:40:05;99960.16;;;0.17;79.10
44027;BME280;29696;55.698;37.460;2022-10-26T02:42:34;99962.00;;;0.15;79.31
44027;BME280;29696;55.698;37.460;2022-10-26T02:45:06;99952.44;;;0.16;79.49
44027;BME280;29696;55.698;37.460;2022-10-26T02:47:35;99950.81;;;0.13;79.67
44027;BME280;29696;55.698;37.460;2022-10-26T02:50:02;99952.50;;;0.14;79.70
44027;BME280;29696;55.698;37.460;2022-10-26T02:55:27;99945.31;;;0.21;79.69
44027;BME280;29696;55.698;37.460;2022-10-26T02:58:01;99945.19;;;0.24;79.97
44027;BME280;29696;55.698;37.460;2022-10-26T03:00:29;99940.84;;;0.25;79.41
44027;BME280;29696;55.698;37.460;2022-10-26T03:02:57;99944.94;;;0.30;79.40
44027;BME280;29696;55.698;37.460;2022-10-26T03:05:29;99951.59;;;0.37;79.18
44027;BME280;29696;55.698;37.460;2022-10-26T03:08:00;99948.19;;;0.35;79.09
44027;BME280;29696;55.698;37.460;2022-10-26T03:10:27;99945.47;;;0.38;79.03
44027;BME280;29696;55.698;37.460;2022-10-26T03:12:53;99944.56;;;0.39;78.82
44027;BME280;29696;55.698;37.460;2022-10-26T03:15:20;99954.97;;;0.39;78.61
44027;BME280;29696;55.698;37.460;2022-10-26T03:17:46;99949.81;;;0.38;78.53
44027;BME280;29696;55.698;37.460;2022-10-26T03:20:12;99947.47;;;0.32;78.69
44027;BME280;29696;55.698;37.460;2022-10-26T03:22:39;99950.16;;;0.30;78.76
44027;BME280;29696;55.698;37.460;2022-10-26T03:25:05;99941.47;;;0.30;79.00
44027;BME280;29696;55.698;37.460;2022-10-26T03:27:32;99944.16;;;0.28;79.00
44027;BME280;29696;55.698;37.460;2022-10-26T03:30:00;99939.09;;;0.25;79.04
44027;BME280;29696;55.698;37.460;2022-10-26T03:32:26;99938.28;;;0.23;79.17
44027;BME280;29696;55.698;37.460;2022-10-26T03:34:52;99939.91;;;0.26;79.19
44027;BME280;29696;55.698;37.460;2022-10-26T03:37:21;99936.47;;;0.25;79.09
44027;BME280;29696;55.698;37.460;2022-10-26T03:39:48;99934.81;;;0.24;79.03
44027;BME280;29696;55.698;37.460;2022-10-26T03:42:14;99931.28;;;0.25;79.02
44027;BME280;29696;55.698;37.460;2022-10-26T03:44:40;99943.19;;;0.31;78.94
44027;BME280;29696;55.698;37.460;2022-10-26T03:47:06;99935.19;;;0.35;78.95
44027;BME280;29696;55.698;37.460;2022-10-26T03:49:33;99930.84;;;0.36;78.84
44027;BME280;29696;55.698;37.460;2022-10-26T03:51:59;99934.19;;;0.39;78.53
44027;BME280;29696;55.698;37.460;2022-10-26T03:54:25;99930.72;;;0.39;78.45
44027;BME280;29696;55.698;37.460;2022-10-26T03:56:52;99934.94;;;0.41;78.54
44027;BME280;29696;55.698;37.460;2022-10-26T03:59:18;99929.69;;;0.43;78.32
44027;BME280;29696;55.698;37.460;2022-10-26T04:01:44;99933.94;;;0.45;78.03
44027;BME280;29696;55.698;37.460;2022-10-26T04:04:10;99934.69;;;0.48;77.98
44027;BME280;29696;55.698;37.460;2022-10-26T04:06:37;99934.69;;;0.48;78.02
44027;BME280;29696;55.698;37.460;2022-10-26T04:09:03;99937.09;;;0.52;77.76
44027;BME280;29696;55.698;37.460;2022-10-26T04:11:29;99937.78;;;0.57;77.86
44027;BME280;29696;55.698;37.460;2022-10-26T04:13:56;99941.13;;;0.59;77.68
44027;BME280;29696;55.698;37.460;2022-10-26T04:16:25;99939.16;;;0.66;77.47
44027;BME280;29696;55.698;37.460;2022-10-26T04:18:51;99932.94;;;0.68;77.44
44027;BME280;29696;55.698;37.460;2022-10-26T04:21:17;99942.38;;;0.71;77.24
44027;BME280;29696;55.698;37.460;2022-10-26T04:23:43;99948.28;;;0.75;77.03
44027;BME280;29696;55.698;37.460;2022-10-26T04:26:10;99944.09;;;0.72;77.00
44027;BME280;29696;55.698;37.460;2022-10-26T04:28:36;99954.41;;;0.74;76.97
44027;BME280;29696;55.698;37.460;2022-10-26T04:31:02;99952.53;;;0.77;76.85
44027;BME280;29696;55.698;37.460;2022-10-26T04:33:28;99959.09;;;0.86;76.61
44027;BME280;29696;55.698;37.460;2022-10-26T04:35:59;99973.44;;;0.96;76.54
44027;BME280;29696;55.698;37.460;2022-10-26T04:38:28;99968.16;;;0.98;76.00
44027;BME280;29696;55.698;37.460;2022-10-26T04:40:54;99966.22;;;1.03;75.81
44027;BME280;29696;55.698;37.460;2022-10-26T04:43:20;99967.00;;;1.05;75.63
44027;BME280;29696;55.698;37.460;2022-10-26T04:45:47;99972.06;;;1.08;75.50
44027;BME280;29696;55.698;37.460;2022-10-26T04:48:13;99965.84;;;1.10;75.33
44027;BME280;29696;55.698;37.460;2022-10-26T04:50:40;99968.41;;;1.12;75.47
44027;BME280;29696;55.698;37.460;2022-10-26T04:53:07;99962.22;;;1.14;75.31
44027;BME280;29696;55.698;37.460;2022-10-26T04:55:34;99968.06;;;1.20;75.32
44027;BME280;29696;55.698;37.460;2022-10-26T04:58:01;99970.56;;;1.23;75.15
44027;BME280;29696;55.698;37.460;2022-10-26T05:00:52;99979.28;;;1.41;75.24
44027;BME280;29696;55.698;37.460;2022-10-26T05:03:19;99971.84;;;1.33;74.45
44027;BME280;29696;55.698;37.460;2022-10-26T05:05:45;99975.16;;;1.36;74.74
44027;BME280;29696;55.698;37.460;2022-10-26T05:08:13;99971.47;;;1.41;74.30
44027;BME280;29696;55.698;37.460;2022-10-26T05:10:39;99966.94;;;1.46;74.33
44027;BME280;29696;55.698;37.460;2022-10-26T05:13:06;99969.34;;;1.50;73.76
44027;BME280;29696;55.698;37.460;2022-10-26T05:15:32;99970.81;;;1.56;73.53
44027;BME280;29696;55.698;37.460;2022-10-26T05:18:00;99962.88;;;1.59;73.43
44027;BME280;29696;55.698;37.460;2022-10-26T05:20:29;99965.25;;;1.64;73.20
44027;BME280;29696;55.698;37.460;2022-10-26T05:22:57;99963.34;;;1.67;73.39
44027;BME280;29696;55.698;37.460;2022-10-26T05:25:25;99971.81;;;1.72;73.25
44027;BME280;29696;55.698;37.460;2022-10-26T05:27:55;99970.81;;;1.75;72.80
44027;BME280;29696;55.698;37.460;2022-10-26T05:30:22;99954.22;;;1.77;72.69
44027;BME280;29696;55.698;37.460;2022-10-26T05:32:58;99965.75;;;1.91;72.64
44027;BME280;29696;55.698;37.460;2022-10-26T05:35:26;99965.06;;;1.87;72.35
44027;BME280;29696;55.698;37.460;2022-10-26T05:37:52;99955.47;;;1.88;71.87
44027;BME280;29696;55.698;37.460;2022-10-26T05:40:19;99964.75;;;1.93;71.70
44027;BME280;29696;55.698;37.460;2022-10-26T05:42:45;99963.78;;;1.96;71.57
44027;BME280;29696;55.698;37.460;2022-10-26T05:45:12;99963.34;;;2.05;71.71
44027;BME280;29696;55.698;37.460;2022-10-26T05:47:40;99965.59;;;2.13;71.04
44027;BME280;29696;55.698;37.460;2022-10-26T05:50:08;99966.63;;;2.27;71.24
44027;BME280;29696;55.698;37.460;2022-10-26T05:52:45;99963.75;;;2.51;70.57
44027;BME280;29696;55.698;37.460;2022-10-26T05:55:13;99965.47;;;2.69;69.99
44027;BME280;29696;55.698;37.460;2022-10-26T05:57:41;99968.06;;;2.87;68.87
44027;BME280;29696;55.698;37.460;2022-10-26T06:00:11;99972.97;;;3.10;67.76
44027;BME280;29696;55.698;37.460;2022-10-26T06:05:49;99965.66;;;3.83;65.72
44027;BME280;29696;55.698;37.460;2022-10-26T06:08:16;99967.91;;;4.21;64.04
44027;BME280;29696;55.698;37.460;2022-10-26T06:10:43;99963.06;;;4.75;61.94
44027;BME280;29696;55.698;37.460;2022-10-26T06:13:12;99969.06;;;5.08;60.16
44027;BME280;29696;55.698;37.460;2022-10-26T06:26:00;99958.53;;;8.99;50.96
44027;BME280;29696;55.698;37.460;2022-10-26T06:29:08;99966.19;;;10.48;46.51
44027;BME280;29696;55.698;37.460;2022-10-26T06:31:38;99960.94;;;10.37;44.05
44027;BME280;29696;55.698;37.460;2022-10-26T06:34:04;99960.50;;;10.85;42.82
44027;BME280;29696;55.698;37.460;2022-10-26T06:36:31;99953.72;;;11.64;41.19
44027;BME280;29696;55.698;37.460;2022-10-26T06:39:09;99958.78;;;11.16;42.90
44027;BME280;29696;55.698;37.460;2022-10-26T06:41:37;99968.38;;;8.73;45.11
44027;BME280;29696;55.698;37.460;2022-10-26T06:44:04;99961.56;;;7.60;48.48
44027;BME280;29696;55.698;37.460;2022-10-26T06:47:06;99954.34;;;7.38;51.15
44027;BME280;29696;55.698;37.460;2022-10-26T06:52:54;99962.53;;;6.55;53.58
44027;BME280;29696;55.698;37.460;2022-10-26T06:55:23;99957.63;;;6.09;52.59
44027;BME280;29696;55.698;37.460;2022-10-26T06:57:52;99966.38;;;6.22;52.69
44027;BME280;29696;55.698;37.460;2022-10-26T07:00:21;99967.34;;;6.21;51.86
44027;BME280;29696;55.698;37.460;2022-10-26T07:02:48;99970.91;;;6.20;52.51
44027;BME280;29696;55.698;37.460;2022-10-26T07:05:14;99967.13;;;6.24;52.69
44027;BME280;29696;55.698;37.460;2022-10-26T07:07:42;99974.56;;;6.45;52.61
44027;BME280;29696;55.698;37.460;2022-10-26T07:10:11;99969.72;;;8.30;48.79
44027;BME280;29696;55.698;37.460;2022-10-26T07:12:38;99966.63;;;10.85;42.88
44027;BME280;29696;55.698;37.460;2022-10-26T07:15:05;99952.69;;;12.56;38.66
44027;BME280;29696;55.698;37.460;2022-10-26T07:17:41;99957.19;;;14.16;35.49
44027;BME280;29696;55.698;37.460;2022-10-26T07:20:09;99958.78;;;14.54;33.86
44027;BME280;29696;55.698;37.460;2022-10-26T07:22:35;99958.69;;;15.26;32.63
44027;BME280;29696;55.698;37.460;2022-10-26T07:25:02;99957.47;;;16.07;31.31
44027;BME280;29696;55.698;37.460;2022-10-26T07:27:29;99941.84;;;16.28;30.41
44027;BME280;29696;55.698;37.460;2022-10-26T07:29:55;99948.75;;;17.04;29.60
44027;BME280;29696;55.698;37.460;2022-10-26T07:32:21;99947.09;;;16.87;28.93
44027;BME280;29696;55.698;37.460;2022-10-26T07:34:48;99959.22;;;15.90;29.81
44027;BME280;29696;55.698;37.460;2022-10-26T07:37:14;99957.34;;;14.50;31.99
44027;BME280;29696;55.698;37.460;2022-10-26T07:39:40;99960.59;;;13.81;33.77
44027;BME280;29696;55.698;37.460;2022-10-26T07:42:07;99963.16;;;14.00;33.33
44027;BME280;29696;55.698;37.460;2022-10-26T07:44:34;99967.25;;;13.85;33.64
44027;BME280;29696;55.698;37.460;2022-10-26T07:47:00;99958.09;;;13.32;34.17
44027;BME280;29696;55.698;37.460;2022-10-26T07:49:27;99950.31;;;12.43;35.45
44027;BME280;29696;55.698;37.460;2022-10-26T07:51:53;99963.84;;;11.50;37.25
44027;BME280;29696;55.698;37.460;2022-10-26T07:54:19;99954.63;;;10.81;38.67
44027;BME280;29696;55.698;37.460;2022-10-26T07:56:48;99965.59;;;10.44;40.41
44027;BME280;29696;55.698;37.460;2022-10-26T07:59:15;99957.88;;;9.87;41.20
44027;BME280;29696;55.698;37.460;2022-10-26T08:01:43;99961.00;;;9.47;41.71
44027;BME280;29696;55.698;37.460;2022-10-26T08:04:10;99970.97;;;8.97;43.14
44027;BME280;29696;55.698;37.460;2022-10-26T08:06:38;99970.09;;;8.50;44.48
44027;BME280;29696;55.698;37.460;2022-10-26T08:09:05;99971.41;;;7.94;45.24
44027;BME280;29696;55.698;37.460;2022-10-26T08:11:31;99968.34;;;7.51;46.83
44027;BME280;29696;55.698;37.460;2022-10-26T08:13:58;100000.16;;;7.08;47.55
44027;BME280;29696;55.698;37.460;2022-10-26T08:16:27;99998.22;;;6.84;48.89
44027;BME280;29696;55.698;37.460;2022-10-26T08:18:53;99980.88;;;6.42;49.70
44027;BME280;29696;55.698;37.460;2022-10-26T08:21:19;99982.59;;;6.29;50.47
44027;BME280;29696;55.698;37.460;2022-10-26T08:23:46;99974.22;;;6.09;50.84
44027;BME280;29696;55.698;37.460;2022-10-26T08:26:12;99969.09;;;5.93;51.40
44027;BME280;29696;55.698;37.460;2022-10-26T08:28:38;99973.75;;;5.74;52.16
44027;BME280;29696;55.698;37.460;2022-10-26T08:31:06;99978.66;;;5.66;52.80
44027;BME280;29696;55.698;37.460;2022-10-26T08:33:32;99961.31;;;5.63;52.50
44027;BME280;29696;55.698;37.460;2022-10-26T08:36:01;99963.94;;;5.78;52.89
44027;BME280;29696;55.698;37.460;2022-10-26T08:38:27;99963.00;;;5.93;52.26
44027;BME280;29696;55.698;37.460;2022-10-26T08:40:56;99977.22;;;6.03;52.34
44027;BME280;29696;55.698;37.460;2022-10-26T08:43:46;99968.53;;;6.30;52.40
44027;BME280;29696;55.698;37.460;2022-10-26T08:46:28;99982.94;;;6.37;52.05
44027;BME280;29696;55.698;37.460;2022-10-26T08:49:17;99982.09;;;6.36;52.19
44027;BME280;29696;55.698;37.460;2022-10-26T08:51:46;99969.41;;;6.16;51.91
44027;BME280;29696;55.698;37.460;2022-10-26T08:54:19;99975.75;;;6.26;52.20
44027;BME280;29696;55.698;37.460;2022-10-26T08:56:50;99967.97;;;6.25;52.22
44027;BME280;29696;55.698;37.460;2022-10-26T08:59:37;99974.19;;;6.51;52.21
44027;BME280;29696;55.698;37.460;2022-10-26T09:02:13;99976.91;;;6.49;52.48
44027;BME280;29696;55.698;37.460;2022-10-26T09:04:40;99973.00;;;6.42;52.08
44027;BME280;29696;55.698;37.460;2022-10-26T09:14:20;99980.50;;;6.34;52.73
44027;BME280;29696;55.698;37.460;2022-10-26T09:26:12;99993.88;;;5.59;54.81
44027;BME280;29696;55.698;37.460;2022-10-26T09:28:40;99981.19;;;5.39;55.09
44027;BME280;29696;55.698;37.460;2022-10-26T09:31:12;99978.56;;;5.39;55.56
44027;BME280;29696;55.698;37.460;2022-10-26T09:33:40;99970.56;;;5.26;56.00
44027;BME280;29696;55.698;37.460;2022-10-26T09:36:11;99970.31;;;5.31;55.70
44027;BME280;29696;55.698;37.460;2022-10-26T09:38:43;99971.25;;;5.30;56.32
44027;BME280;29696;55.698;37.460;2022-10-26T09:42:20;99979.56;;;5.36;56.02
44027;BME280;29696;55.698;37.460;2022-10-26T09:44:56;99983.38;;;5.16;56.76
44027;BME280;29696;55.698;37.460;2022-10-26T09:47:33;99981.13;;;5.10;57.42
44027;BME280;29696;55.698;37.460;2022-10-26T09:50:06;99988.31;;;5.07;56.86
44027;BME280;29696;55.698;37.460;2022-10-26T09:52:41;99989.34;;;5.04;56.95
44027;BME280;29696;55.698;37.460;2022-10-26T09:55:11;99969.69;;;5.11;57.08
44027;BME280;29696;55.698;37.460;2022-10-26T09:57:44;99985.38;;;5.27;56.72
44027;BME280;29696;55.698;37.460;2022-10-26T10:00:16;99977.22;;;5.32;56.60
44027;BME280;29696;55.698;37.460;2022-10-26T10:02:45;99984.81;;;5.36;56.03
44027;BME280;29696;55.698;37.460;2022-10-26T10:05:45;99977.25;;;5.60;56.42
44027;BME280;29696;55.698;37.460;2022-10-26T10:08:34;99978.28;;;5.72;56.18
44027;BME280;29696;55.698;37.460;2022-10-26T10:11:07;99972.84;;;5.61;56.06
44027;BME280;29696;55.698;37.460;2022-10-26T10:13:39;99968.34;;;5.63;56.44
44027;BME280;29696;55.698;37.460;2022-10-26T10:16:32;99973.94;;;5.85;56.19
44027;BME280;29696;55.698;37.460;2022-10-26T10:18:59;99967.84;;;5.85;55.88
44027;BME280;29696;55.698;37.460;2022-10-26T10:21:47;99961.19;;;6.08;55.42
44027;BME280;29696;55.698;37.460;2022-10-26T10:24:23;99967.94;;;6.12;55.57
44027;BME280;29696;55.698;37.460;2022-10-26T10:27:04;99965.84;;;6.17;55.14
44027;BME280;29696;55.698;37.460;2022-10-26T10:29:33;99969.72;;;6.11;55.20
44027;BME280;29696;55.698;37.460;2022-10-26T10:32:01;99966.25;;;6.11;55.05
44027;BME280;29696;55.698;37.460;2022-10-26T10:34:32;99972.59;;;6.21;55.32
44027;BME280;29696;55.698;37.460;2022-10-26T10:36:59;99970.78;;;6.22;55.08
44027;BME280;29696;55.698;37.460;2022-10-26T10:39:40;99964.03;;;6.32;55.09
44027;BME280;29696;55.698;37.460;2022-10-26T10:42:17;99964.44;;;6.26;55.33
44027;BME280;29696;55.698;37.460;2022-10-26T10:44:46;99966.13;;;6.12;55.45
44027;BME280;29696;55.698;37.460;2022-10-26T10:47:36;99966.94;;;6.27;55.51
44027;BME280;29696;55.698;37.460;2022-10-26T10:50:10;99964.81;;;6.20;55.81
44027;BME280;29696;55.698;37.460;2022-10-26T10:52:40;99960.81;;;6.14;55.83
44027;BME280;29696;55.698;37.460;2022-10-26T10:55:33;99963.28;;;6.30;55.60
44027;BME280;29696;55.698;37.460;2022-10-26T10:58:26;99965.06;;;6.29;55.96
44027;BME280;29696;55.698;37.460;2022-10-26T11:00:56;99963.44;;;6.14;56.04
44027;BME280;29696;55.698;37.460;2022-10-26T11:03:44;99964.34;;;6.40;55.53
44027;BME280;29696;55.698;37.460;2022-10-26T11:06:16;99967.69;;;6.29;55.09
44027;BME280;29696;55.698;37.460;2022-10-26T11:09:17;99970.13;;;6.32;55.07
44027;BME280;29696;55.698;37.460;2022-10-26T11:14:44;99961.19;;;6.08;55.38
44027;BME280;29696;55.698;37.460;2022-10-26T11:17:25;99957.81;;;6.06;55.40
44027;BME280;29696;55.698;37.460;2022-10-26T11:20:14;99964.84;;;6.05;55.58
44027;BME280;29696;55.698;37.460;2022-10-26T11:22:57;99961.88;;;5.97;55.25
44027;BME280;29696;55.698;37.460;2022-10-26T11:25:29;99960.53;;;5.90;54.71
44027;BME280;29696;55.698;37.460;2022-10-26T11:28:12;99959.25;;;5.97;55.13
44027;BME280;29696;55.698;37.460;2022-10-26T11:30:48;99955.66;;;5.98;55.16
44027;BME280;29696;55.698;37.460;2022-10-26T11:33:22;99966.63;;;6.05;54.38
44027;BME280;29696;55.698;37.460;2022-10-26T11:38:51;99958.59;;;5.93;55.37
44027;BME280;29696;55.698;37.460;2022-10-26T11:44:42;99956.03;;;5.92;54.44
44027;BME280;29696;55.698;37.460;2022-10-26T11:50:35;99961.56;;;5.87;54.37
44027;BME280;29696;55.698;37.460;2022-10-26T11:53:35;99959.16;;;5.84;54.34
44027;BME280;29696;55.698;37.460;2022-10-26T11:56:04;99940.81;;;5.70;54.57
44027;BME280;29696;55.698;37.460;2022-10-26T11:58:36;99935.66;;;5.68;54.59
44027;BME280;29696;55.698;37.460;2022-10-26T12:01:08;99944.44;;;5.82;54.76
44027;BME280;29696;55.698;37.460;2022-10-26T12:03:42;99941.53;;;5.86;54.92
44027;BME280;29696;55.698;37.460;2022-10-26T12:06:12;99936.47;;;5.83;55.02
44027;BME280;29696;55.698;37.460;2022-10-26T12:08:42;99935.63;;;5.83;54.90
44027;BME280;29696;55.698;37.460;2022-10-26T12:14:33;99936.19;;;5.73;55.67
44027;BME280;29696;55.698;37.460;2022-10-26T12:23:57;99942.50;;;5.42;56.27
44027;BME280;29696;55.698;37.460;2022-10-26T12:26:50;99933.13;;;5.38;56.54
44027;BME280;29696;55.698;37.460;2022-10-26T12:29:47;99936.44;;;5.28;56.63
44027;BME280;29696;55.698;37.460;2022-10-26T12:35:42;99934.56;;;5.30;56.72
44027;BME280;29696;55.698;37.460;2022-10-26T12:50:32;99939.03;;;5.28;57.50
44027;BME280;29696;55.698;37.460;2022-10-26T12:53:21;99928.28;;;5.32;56.94
44027;BME280;29696;55.698;37.460;2022-10-26T12:56:02;99941.47;;;5.16;57.14
44027;BME280;29696;55.698;37.460;2022-10-26T12:59:03;99928.19;;;5.19;57.79
44027;BME280;29696;55.698;37.460;2022-10-26T13:08:16;99932.16;;;4.96;58.22
44027;BME280;29696;55.698;37.460;2022-10-26T13:14:25;99938.47;;;4.94;59.06
44027;BME280;29696;55.698;37.460;2022-10-26T13:16:53;99928.78;;;4.80;59.36
44027;BME280;29696;55.698;37.460;2022-10-26T13:19:43;99930.47;;;4.81;59.62
44027;BME280;29696;55.698;37.460;2022-10-26T13:22:20;99927.38;;;4.74;60.23
44027;BME280;29696;55.698;37.460;2022-10-26T13:25:05;99924.09;;;4.71;60.29
44027;BME280;29696;55.698;37.460;2022-10-26T13:31:00;99935.75;;;4.65;60.80
44027;BME280;29696;55.698;37.460;2022-10-26T13:33:50;99932.25;;;4.50;60.97
44027;BME280;29696;55.698;37.460;2022-10-26T13:36:30;99937.06;;;4.42;61.39
44027;BME280;29696;55.698;37.460;2022-10-26T13:39:05;99932.19;;;4.36;62.07
44027;BME280;29696;55.698;37.460;2022-10-26T13:41:39;99930.09;;;4.27;62.47
44027;BME280;29696;55.698;37.460;2022-10-26T13:44:15;99926.75;;;4.25;62.68
44027;BME280;29696;55.698;37.460;2022-10-26T13:46:44;99916.59;;;4.19;62.91
44027;BME280;29696;55.698;37.460;2022-10-26T13:49:19;99931.97;;;4.25;63.15
44027;BME280;29696;55.698;37.460;2022-10-26T13:51:49;99932.13;;;4.22;63.31
44027;BME280;29696;55.698;37.460;2022-10-26T13:54:50;99934.66;;;4.23;63.21
44027;BME280;29696;55.698;37.460;2022-10-26T13:57:44;99930.53;;;4.19;63.60
44027;BME280;29696;55.698;37.460;2022-10-26T14:00:18;99941.59;;;4.08;63.68
44027;BME280;29696;55.698;37.460;2022-10-26T14:02:45;99938.47;;;4.02;63.92
44027;BME280;29696;55.698;37.460;2022-10-26T14:05:14;99944.91;;;3.96;64.15
44027;BME280;29696;55.698;37.460;2022-10-26T14:08:04;99932.06;;;3.92;64.88
44027;BME280;29696;55.698;37.460;2022-10-26T14:10:40;99942.69;;;3.88;65.26
44027;BME280;29696;55.698;37.460;2022-10-26T14:13:08;99938.81;;;3.80;65.28
44027;BME280;29696;55.698;37.460;2022-10-26T14:15:42;99933.66;;;3.78;65.46
44027;BME280;29696;55.698;37.460;2022-10-26T14:18:17;99940.50;;;3.81;65.78
44027;BME280;29696;55.698;37.460;2022-10-26T14:21:00;99935.28;;;3.81;65.94
44027;BME280;29696;55.698;37.460;2022-10-26T14:23:35;99937.28;;;3.76;66.02
44027;BME280;29696;55.698;37.460;2022-10-26T14:26:02;99940.84;;;3.75;66.39
44027;BME280;29696;55.698;37.460;2022-10-26T14:28:37;99943.13;;;3.81;66.27
44027;BME280;29696;55.698;37.460;2022-10-26T14:31:31;99943.78;;;3.84;66.06
44027;BME280;29696;55.698;37.460;2022-10-26T14:33:59;99936.69;;;3.71;66.46
44027;BME280;29696;55.698;37.460;2022-10-26T14:39:44;99943.34;;;3.76;66.96
44027;BME280;29696;55.698;37.460;2022-10-26T14:42:38;99948.53;;;3.78;66.87
44027;BME280;29696;55.698;37.460;2022-10-26T14:48:06;99949.84;;;3.69;67.18
44027;BME280;29696;55.698;37.460;2022-10-26T14:50:42;99938.63;;;3.67;67.41
44027;BME280;29696;55.698;37.460;2022-10-26T14:53:33;99953.81;;;3.76;67.28
44027;BME280;29696;55.698;37.460;2022-10-26T14:56:02;99956.94;;;3.67;68.07
44027;BME280;29696;55.698;37.460;2022-10-26T14:58:30;99956.25;;;3.63;68.14
44027;BME280;29696;55.698;37.460;2022-10-26T15:04:38;99963.47;;;3.58;68.51
44027;BME280;29696;55.698;37.460;2022-10-26T15:07:37;99952.69;;;3.64;68.83
44027;BME280;29696;55.698;37.460;2022-10-26T15:13:31;99945.13;;;3.60;69.02
44027;BME280;29696;55.698;37.460;2022-10-26T15:16:09;99950.59;;;3.55;68.97
44027;BME280;29696;55.698;37.460;2022-10-26T15:18:41;99954.03;;;3.56;68.86